sensor_id;sensor_type;location;lat;lon;timestamp;temperature;humidity
9723;DHT22;4900;49.306;8.500;2023-03-07T00:01:00;5.13;66.69
9723;DHT22;4900;49.306;8.500;2023-03-07T00:03:26;5.19;66.72
9723;DHT22;4900;49.306;8.500;2023-03-07T00:06:06;5.23;66.60
9723;DHT22;4900;49.306;8.500;2023-03-07T00:08:33;5.19;66.53
9723;DHT22;4900;49.306;8.500;2023-03-07T00:11:04;5.16;66.69
9723;DHT22;4900;49.306;8.500;2023-03-07T00:13:30;5.18;66.73
9723;DHT22;4900;49.306;8.500;2023-03-07T00:16:07;5.19;66.51
9723;DHT22;4900;49.306;8.500;2023-03-07T00:18:33;5.20;66.46
9723;DHT22;4900;49.306;8.500;2023-03-07T00:21:00;5.20;66.39
9723;DHT22;4900;49.306;8.500;2023-03-07T00:23:27;5.23;66.31
9723;DHT22;4900;49.306;8.500;2023-03-07T00:26:01;5.23;66.35
9723;DHT22;4900;49.306;8.500;2023-03-07T00:28:27;5.20;66.40
9723;DHT22;4900;49.306;8.500;2023-03-07T00:30:52;5.18;66.47
9723;DHT22;4900;49.306;8.500;2023-03-07T00:33:18;5.22;66.28
9723;DHT22;4900;49.306;8.500;2023-03-07T00:35:44;5.12;66.41
9723;DHT22;4900;49.306;8.500;2023-03-07T00:38:09;5.16;66.41
9723;DHT22;4900;49.306;8.500;2023-03-07T00:40:34;5.15;66.38
9723;DHT22;4900;49.306;8.500;2023-03-07T00:43:00;5.12;66.29
9723;DHT22;4900;49.306;8.500;2023-03-07T00:45:25;5.15;66.17
9723;DHT22;4900;49.306;8.500;2023-03-07T00:47:51;5.15;66.09
9723;DHT22;4900;49.306;8.500;2023-03-07T00:50:17;5.19;66.01
9723;DHT22;4900;49.306;8.500;2023-03-07T00:52:42;5.25;65.83
9723;DHT22;4900;49.306;8.500;2023-03-07T00:55:08;5.19;65.91
9723;DHT22;4900;49.306;8.500;2023-03-07T00:57:34;5.20;65.96
9723;DHT22;4900;49.306;8.500;2023-03-07T00:59:59;5.19;66.06
9723;DHT22;4900;49.306;8.500;2023-03-07T01:02:25;5.19;65.93
9723;DHT22;4900;49.306;8.500;2023-03-07T01:04:50;5.18;66.00
9723;DHT22;4900;49.306;8.500;2023-03-07T01:07:16;5.20;65.94
9723;DHT22;4900;49.306;8.500;2023-03-07T01:09:41;5.20;65.88
9723;DHT22;4900;49.306;8.500;2023-03-07T01:12:07;5.23;65.93
9723;DHT22;4900;49.306;8.500;2023-03-07T01:14:33;5.23;65.83
9723;DHT22;4900;49.306;8.500;2023-03-07T01:16:58;5.18;66.04
9723;DHT22;4900;49.306;8.500;2023-03-07T01:19:24;5.19;66.06
9723;DHT22;4900;49.306;8.500;2023-03-07T01:21:49;5.20;66.07
9723;DHT22;4900;49.306;8.500;2023-03-07T01:24:15;5.15;66.26
9723;DHT22;4900;49.306;8.500;2023-03-07T01:26:42;5.22;66.31
9723;DHT22;4900;49.306;8.500;2023-03-07T01:29:09;5.22;66.28
9723;DHT22;4900;49.306;8.500;2023-03-07T01:31:35;5.20;66.29
9723;DHT22;4900;49.306;8.500;2023-03-07T01:34:02;5.18;66.46
9723;DHT22;4900;49.306;8.500;2023-03-07T01:36:30;5.06;66.90
9723;DHT22;4900;49.306;8.500;2023-03-07T01:39:02;5.11;67.12
9723;DHT22;4900;49.306;8.500;2023-03-07T01:41:31;5.06;67.48
9723;DHT22;4900;49.306;8.500;2023-03-07T01:44:01;5.02;67.63
9723;DHT22;4900;49.306;8.500;2023-03-07T01:46:33;5.05;67.82
9723;DHT22;4900;49.306;8.500;2023-03-07T01:49:16;5.08;67.97
9723;DHT22;4900;49.306;8.500;2023-03-07T01:51:45;5.02;68.68
9723;DHT22;4900;49.306;8.500;2023-03-07T01:54:14;4.98;69.12
9723;DHT22;4900;49.306;8.500;2023-03-07T01:56:41;4.97;69.32
9723;DHT22;4900;49.306;8.500;2023-03-07T01:59:07;4.94;69.67
9723;DHT22;4900;49.306;8.500;2023-03-07T02:01:33;4.95;69.92
9723;DHT22;4900;49.306;8.500;2023-03-07T02:04:08;4.92;70.15
9723;DHT22;4900;49.306;8.500;2023-03-07T02:06:36;4.97;70.09
9723;DHT22;4900;49.306;8.500;2023-03-07T02:09:05;4.97;70.18
9723;DHT22;4900;49.306;8.500;2023-03-07T02:11:41;4.81;70.75
9723;DHT22;4900;49.306;8.500;2023-03-07T02:14:07;4.94;70.71
9723;DHT22;4900;49.306;8.500;2023-03-07T02:16:32;4.94;70.63
9723;DHT22;4900;49.306;8.500;2023-03-07T02:18:59;4.94;70.73
9723;DHT22;4900;49.306;8.500;2023-03-07T02:21:37;4.84;71.17
9723;DHT22;4900;49.306;8.500;2023-03-07T02:24:07;4.84;71.39
9723;DHT22;4900;49.306;8.500;2023-03-07T02:26:50;4.85;71.53
9723;DHT22;4900;49.306;8.500;2023-03-07T02:29:16;4.89;71.62
9723;DHT22;4900;49.306;8.500;2023-03-07T02:31:41;4.92;71.61
9723;DHT22;4900;49.306;8.500;2023-03-07T02:34:24;4.89;71.76
9723;DHT22;4900;49.306;8.500;2023-03-07T02:37:12;4.80;72.35
9723;DHT22;4900;49.306;8.500;2023-03-07T02:39:41;4.88;72.11
9723;DHT22;4900;49.306;8.500;2023-03-07T02:42:11;4.84;72.18
9723;DHT22;4900;49.306;8.500;2023-03-07T02:44:38;4.92;72.12
9723;DHT22;4900;49.306;8.500;2023-03-07T02:47:04;4.87;72.40
9723;DHT22;4900;49.306;8.500;2023-03-07T02:49:33;4.78;72.51
9723;DHT22;4900;49.306;8.500;2023-03-07T02:51:59;4.70;73.39
9723;DHT22;4900;49.306;8.500;2023-03-07T02:54:25;4.67;73.72
9723;DHT22;4900;49.306;8.500;2023-03-07T02:56:51;4.74;73.60
9723;DHT22;4900;49.306;8.500;2023-03-07T02:59:17;4.70;73.69
9723;DHT22;4900;49.306;8.500;2023-03-07T03:01:43;4.73;73.82
9723;DHT22;4900;49.306;8.500;2023-03-07T03:04:08;4.73;73.99
9723;DHT22;4900;49.306;8.500;2023-03-07T03:06:34;4.74;73.85
9723;DHT22;4900;49.306;8.500;2023-03-07T03:08:59;4.76;73.98
9723;DHT22;4900;49.306;8.500;2023-03-07T03:11:25;4.70;74.21
9723;DHT22;4900;49.306;8.500;2023-03-07T03:13:50;4.78;74.17
9723;DHT22;4900;49.306;8.500;2023-03-07T03:16:16;4.83;73.94
9723;DHT22;4900;49.306;8.500;2023-03-07T03:18:41;4.76;74.20
9723;DHT22;4900;49.306;8.500;2023-03-07T03:21:08;4.77;74.37
9723;DHT22;4900;49.306;8.500;2023-03-07T03:23:34;4.71;74.60
9723;DHT22;4900;49.306;8.500;2023-03-07T03:26:03;4.69;74.94
9723;DHT22;4900;49.306;8.500;2023-03-07T03:28:34;4.53;75.55
9723;DHT22;4900;49.306;8.500;2023-03-07T03:31:02;4.56;75.73
9723;DHT22;4900;49.306;8.500;2023-03-07T03:33:29;4.63;75.51
9723;DHT22;4900;49.306;8.500;2023-03-07T03:35:56;4.67;75.18
9723;DHT22;4900;49.306;8.500;2023-03-07T03:38:22;4.59;75.45
9723;DHT22;4900;49.306;8.500;2023-03-07T03:40:47;4.60;75.62
9723;DHT22;4900;49.306;8.500;2023-03-07T03:43:13;4.67;75.47
9723;DHT22;4900;49.306;8.500;2023-03-07T03:45:39;4.70;75.27
9723;DHT22;4900;49.306;8.500;2023-03-07T03:48:05;4.67;75.32
9723;DHT22;4900;49.306;8.500;2023-03-07T03:50:31;4.66;75.23
9723;DHT22;4900;49.306;8.500;2023-03-07T03:52:58;4.64;75.34
9723;DHT22;4900;49.306;8.500;2023-03-07T03:55:24;4.67;75.23
9723;DHT22;4900;49.306;8.500;2023-03-07T03:57:50;4.70;75.17
9723;DHT22;4900;49.306;8.500;2023-03-07T04:00:16;4.67;75.25
9723;DHT22;4900;49.306;8.500;2023-03-07T04:02:44;4.66;75.24
9723;DHT22;4900;49.306;8.500;2023-03-07T04:05:10;4.69;74.99
9723;DHT22;4900;49.306;8.500;2023-03-07T04:07:36;4.63;75.28
9723;DHT22;4900;49.306;8.500;2023-03-07T04:10:02;4.64;75.20
9723;DHT22;4900;49.306;8.500;2023-03-07T04:12:27;4.59;75.35
9723;DHT22;4900;49.306;8.500;2023-03-07T04:14:53;4.60;75.29
9723;DHT22;4900;49.306;8.500;2023-03-07T04:17:19;4.61;75.25
9723;DHT22;4900;49.306;8.500;2023-03-07T04:19:45;4.60;75.25
9723;DHT22;4900;49.306;8.500;2023-03-07T04:22:11;4.60;75.19
9723;DHT22;4900;49.306;8.500;2023-03-07T04:24:36;4.52;75.21
9723;DHT22;4900;49.306;8.500;2023-03-07T04:27:02;4.57;75.11
9723;DHT22;4900;49.306;8.500;2023-03-07T04:29:27;4.53;75.21
9723;DHT22;4900;49.306;8.500;2023-03-07T04:31:55;4.49;75.40
9723;DHT22;4900;49.306;8.500;2023-03-07T04:34:21;4.43;75.51
9723;DHT22;4900;49.306;8.500;2023-03-07T04:36:46;4.42;75.46
9723;DHT22;4900;49.306;8.500;2023-03-07T04:39:11;4.42;75.52
9723;DHT22;4900;49.306;8.500;2023-03-07T04:41:37;4.45;75.46
9723;DHT22;4900;49.306;8.500;2023-03-07T04:44:03;4.43;75.39
9723;DHT22;4900;49.306;8.500;2023-03-07T04:46:28;4.43;75.46
9723;DHT22;4900;49.306;8.500;2023-03-07T04:48:54;4.46;75.45
9723;DHT22;4900;49.306;8.500;2023-03-07T04:51:21;4.45;75.37
9723;DHT22;4900;49.306;8.500;2023-03-07T04:53:47;4.43;75.42
9723;DHT22;4900;49.306;8.500;2023-03-07T04:56:13;4.48;75.32
9723;DHT22;4900;49.306;8.500;2023-03-07T04:58:42;4.49;75.07
9723;DHT22;4900;49.306;8.500;2023-03-07T05:01:08;4.59;74.90
9723;DHT22;4900;49.306;8.500;2023-03-07T05:03:34;4.56;74.87
9723;DHT22;4900;49.306;8.500;2023-03-07T05:06:05;4.57;74.92
9723;DHT22;4900;49.306;8.500;2023-03-07T05:08:31;4.57;74.76
9723;DHT22;4900;49.306;8.500;2023-03-07T05:10:57;4.63;74.42
9723;DHT22;4900;49.306;8.500;2023-03-07T05:13:22;4.63;74.41
9723;DHT22;4900;49.306;8.500;2023-03-07T05:15:52;4.67;74.27
9723;DHT22;4900;49.306;8.500;2023-03-07T05:18:18;4.61;74.26
9723;DHT22;4900;49.306;8.500;2023-03-07T05:20:43;4.52;74.43
9723;DHT22;4900;49.306;8.500;2023-03-07T05:23:09;4.52;74.47
9723;DHT22;4900;49.306;8.500;2023-03-07T05:25:35;4.57;74.27
9723;DHT22;4900;49.306;8.500;2023-03-07T05:28:01;4.60;74.11
9723;DHT22;4900;49.306;8.500;2023-03-07T05:30:26;4.60;74.00
9723;DHT22;4900;49.306;8.500;2023-03-07T05:32:55;4.60;73.83
9723;DHT22;4900;49.306;8.500;2023-03-07T05:35:20;4.57;73.66
9723;DHT22;4900;49.306;8.500;2023-03-07T05:37:49;4.64;73.42
9723;DHT22;4900;49.306;8.500;2023-03-07T05:40:15;4.69;73.02
9723;DHT22;4900;49.306;8.500;2023-03-07T05:42:40;4.67;73.02
9723;DHT22;4900;49.306;8.500;2023-03-07T05:45:07;4.70;72.75
9723;DHT22;4900;49.306;8.500;2023-03-07T05:47:33;4.67;72.61
9723;DHT22;4900;49.306;8.500;2023-03-07T05:49:58;4.70;72.33
9723;DHT22;4900;49.306;8.500;2023-03-07T05:52:24;4.71;72.19
9723;DHT22;4900;49.306;8.500;2023-03-07T05:54:49;4.70;71.99
9723;DHT22;4900;49.306;8.500;2023-03-07T05:57:15;4.70;71.82
9723;DHT22;4900;49.306;8.500;2023-03-07T05:59:41;4.74;71.70
9723;DHT22;4900;49.306;8.500;2023-03-07T06:02:06;4.71;71.46
9723;DHT22;4900;49.306;8.500;2023-03-07T06:04:32;4.70;71.46
9723;DHT22;4900;49.306;8.500;2023-03-07T06:06:57;4.66;71.33
9723;DHT22;4900;49.306;8.500;2023-03-07T06:09:24;4.60;71.43
9723;DHT22;4900;49.306;8.500;2023-03-07T06:11:50;4.60;71.28
9723;DHT22;4900;49.306;8.500;2023-03-07T06:14:15;4.66;71.16
9723;DHT22;4900;49.306;8.500;2023-03-07T06:16:41;4.61;71.05
9723;DHT22;4900;49.306;8.500;2023-03-07T06:19:06;4.60;71.06
9723;DHT22;4900;49.306;8.500;2023-03-07T06:21:32;4.61;70.91
9723;DHT22;4900;49.306;8.500;2023-03-07T06:23:58;4.57;70.93
9723;DHT22;4900;49.306;8.500;2023-03-07T06:26:23;4.63;70.81
9723;DHT22;4900;49.306;8.500;2023-03-07T06:28:49;4.61;70.78
9723;DHT22;4900;49.306;8.500;2023-03-07T06:31:17;4.69;70.59
9723;DHT22;4900;49.306;8.500;2023-03-07T06:33:43;4.73;70.42
9723;DHT22;4900;49.306;8.500;2023-03-07T06:36:11;4.78;70.23
9723;DHT22;4900;49.306;8.500;2023-03-07T06:38:37;4.88;69.94
9723;DHT22;4900;49.306;8.500;2023-03-07T06:41:03;4.97;69.69
9723;DHT22;4900;49.306;8.500;2023-03-07T06:43:29;5.11;69.37
9723;DHT22;4900;49.306;8.500;2023-03-07T06:45:54;5.13;69.05
9723;DHT22;4900;49.306;8.500;2023-03-07T06:48:20;5.19;68.80
9723;DHT22;4900;49.306;8.500;2023-03-07T06:50:46;5.22;68.46
9723;DHT22;4900;49.306;8.500;2023-03-07T06:53:12;5.29;68.23
9723;DHT22;4900;49.306;8.500;2023-03-07T06:55:37;5.29;68.11
9723;DHT22;4900;49.306;8.500;2023-03-07T06:58:03;5.36;67.97
9723;DHT22;4900;49.306;8.500;2023-03-07T07:00:29;5.36;67.71
9723;DHT22;4900;49.306;8.500;2023-03-07T07:02:54;5.42;67.53
9723;DHT22;4900;49.306;8.500;2023-03-07T07:05:20;5.54;67.31
9723;DHT22;4900;49.306;8.500;2023-03-07T07:07:46;5.56;67.03
9723;DHT22;4900;49.306;8.500;2023-03-07T07:10:11;5.60;66.81
9723;DHT22;4900;49.306;8.500;2023-03-07T07:12:37;5.63;66.58
9723;DHT22;4900;49.306;8.500;2023-03-07T07:15:03;5.73;66.34
9723;DHT22;4900;49.306;8.500;2023-03-07T07:17:33;5.84;66.17
9723;DHT22;4900;49.306;8.500;2023-03-07T07:20:04;5.84;65.86
9723;DHT22;4900;49.306;8.500;2023-03-07T07:22:31;5.85;65.67
9723;DHT22;4900;49.306;8.500;2023-03-07T07:24:56;5.92;65.49
9723;DHT22;4900;49.306;8.500;2023-03-07T07:27:22;6.02;65.14
9723;DHT22;4900;49.306;8.500;2023-03-07T07:29:50;6.10;64.98
9723;DHT22;4900;49.306;8.500;2023-03-07T07:32:16;6.25;64.55
9723;DHT22;4900;49.306;8.500;2023-03-07T07:34:42;6.33;64.15
9723;DHT22;4900;49.306;8.500;2023-03-07T07:37:07;6.34;63.95
9723;DHT22;4900;49.306;8.500;2023-03-07T07:39:33;6.40;63.68
9723;DHT22;4900;49.306;8.500;2023-03-07T07:41:58;6.47;63.53
9723;DHT22;4900;49.306;8.500;2023-03-07T07:44:24;6.47;63.38
9723;DHT22;4900;49.306;8.500;2023-03-07T07:46:49;6.57;63.29
9723;DHT22;4900;49.306;8.500;2023-03-07T07:49:15;6.55;63.24
9723;DHT22;4900;49.306;8.500;2023-03-07T07:51:40;6.61;63.03
9723;DHT22;4900;49.306;8.500;2023-03-07T07:54:07;6.71;62.85
9723;DHT22;4900;49.306;8.500;2023-03-07T07:56:33;6.81;62.37
9723;DHT22;4900;49.306;8.500;2023-03-07T07:58:59;6.93;62.22
9723;DHT22;4900;49.306;8.500;2023-03-07T08:01:25;7.02;62.06
9723;DHT22;4900;49.306;8.500;2023-03-07T08:03:51;6.99;61.62
9723;DHT22;4900;49.306;8.500;2023-03-07T08:06:21;7.02;61.35
9723;DHT22;4900;49.306;8.500;2023-03-07T08:08:48;7.12;61.20
9723;DHT22;4900;49.306;8.500;2023-03-07T08:11:15;7.28;60.92
9723;DHT22;4900;49.306;8.500;2023-03-07T08:13:41;7.28;60.61
9723;DHT22;4900;49.306;8.500;2023-03-07T08:16:12;7.31;60.38
9723;DHT22;4900;49.306;8.500;2023-03-07T08:18:39;7.34;60.07
9723;DHT22;4900;49.306;8.500;2023-03-07T08:21:05;7.47;60.11
9723;DHT22;4900;49.306;8.500;2023-03-07T08:23:31;7.56;59.73
9723;DHT22;4900;49.306;8.500;2023-03-07T08:26:04;7.68;59.57
9723;DHT22;4900;49.306;8.500;2023-03-07T08:28:31;7.86;59.20
9723;DHT22;4900;49.306;8.500;2023-03-07T08:30:57;7.95;58.64
9723;DHT22;4900;49.306;8.500;2023-03-07T08:33:23;8.10;58.29
9723;DHT22;4900;49.306;8.500;2023-03-07T08:35:48;8.09;58.08
9723;DHT22;4900;49.306;8.500;2023-03-07T08:38:14;8.28;57.68
9723;DHT22;4900;49.306;8.500;2023-03-07T08:40:39;8.48;57.16
9723;DHT22;4900;49.306;8.500;2023-03-07T08:43:05;8.61;57.03
9723;DHT22;4900;49.306;8.500;2023-03-07T08:45:30;8.66;56.48
9723;DHT22;4900;49.306;8.500;2023-03-07T08:47:56;8.99;56.07
9723;DHT22;4900;49.306;8.500;2023-03-07T08:50:24;9.11;55.09
9723;DHT22;4900;49.306;8.500;2023-03-07T08:52:50;9.17;54.59
9723;DHT22;4900;49.306;8.500;2023-03-07T08:55:16;9.41;54.68
9723;DHT22;4900;49.306;8.500;2023-03-07T08:57:41;9.65;53.98
9723;DHT22;4900;49.306;8.500;2023-03-07T09:00:09;9.74;53.45
9723;DHT22;4900;49.306;8.500;2023-03-07T09:02:36;9.74;53.18
9723;DHT22;4900;49.306;8.500;2023-03-07T09:05:02;9.98;52.87
9723;DHT22;4900;49.306;8.500;2023-03-07T09:07:27;10.04;52.72
9723;DHT22;4900;49.306;8.500;2023-03-07T09:09:53;10.08;52.30
9723;DHT22;4900;49.306;8.500;2023-03-07T09:12:18;9.94;52.07
9723;DHT22;4900;49.306;8.500;2023-03-07T09:14:44;9.94;51.69
9723;DHT22;4900;49.306;8.500;2023-03-07T09:17:09;10.08;51.19
9723;DHT22;4900;49.306;8.500;2023-03-07T09:19:35;10.32;51.15
9723;DHT22;4900;49.306;8.500;2023-03-07T09:22:01;10.39;50.53
9723;DHT22;4900;49.306;8.500;2023-03-07T09:24:26;10.46;50.60
9723;DHT22;4900;49.306;8.500;2023-03-07T09:26:53;10.53;50.48
9723;DHT22;4900;49.306;8.500;2023-03-07T09:29:18;10.46;49.84
9723;DHT22;4900;49.306;8.500;2023-03-07T09:31:45;10.49;50.33
9723;DHT22;4900;49.306;8.500;2023-03-07T09:34:11;10.53;50.08
9723;DHT22;4900;49.306;8.500;2023-03-07T09:36:36;10.84;49.64
9723;DHT22;4900;49.306;8.500;2023-03-07T09:39:03;10.77;49.84
9723;DHT22;4900;49.306;8.500;2023-03-07T09:41:33;10.66;49.44
9723;DHT22;4900;49.306;8.500;2023-03-07T09:49:57;10.70;49.07
9723;DHT22;4900;49.306;8.500;2023-03-07T09:52:28;10.73;48.69
9723;DHT22;4900;49.306;8.500;2023-03-07T09:55:10;10.63;48.63
9723;DHT22;4900;49.306;8.500;2023-03-07T09:57:46;10.48;48.80
9723;DHT22;4900;49.306;8.500;2023-03-07T10:00:23;10.32;48.99
9723;DHT22;4900;49.306;8.500;2023-03-07T10:02:53;10.11;49.42
9723;DHT22;4900;49.306;8.500;2023-03-07T10:07:47;11.11;48.12
9723;DHT22;4900;49.306;8.500;2023-03-07T10:10:19;11.46;46.85
9723;DHT22;4900;49.306;8.500;2023-03-07T10:20:51;13.56;42.18
9723;DHT22;4900;49.306;8.500;2023-03-07T10:26:34;14.02;41.25
9723;DHT22;4900;49.306;8.500;2023-03-07T10:29:15;14.33;41.67
9723;DHT22;4900;49.306;8.500;2023-03-07T10:31:46;14.80;40.52
9723;DHT22;4900;49.306;8.500;2023-03-07T10:34:26;15.01;39.31
9723;DHT22;4900;49.306;8.500;2023-03-07T10:36:56;15.01;38.92
9723;DHT22;4900;49.306;8.500;2023-03-07T10:42:14;15.42;38.38
9723;DHT22;4900;49.306;8.500;2023-03-07T10:44:41;15.67;37.76
9723;DHT22;4900;49.306;8.500;2023-03-07T10:47:18;15.84;37.59
9723;DHT22;4900;49.306;8.500;2023-03-07T10:49:46;15.63;37.35
9723;DHT22;4900;49.306;8.500;2023-03-07T10:52:39;15.59;37.44
9723;DHT22;4900;49.306;8.500;2023-03-07T10:55:37;15.99;37.21
9723;DHT22;4900;49.306;8.500;2023-03-07T10:58:24;16.34;36.95
9723;DHT22;4900;49.306;8.500;2023-03-07T11:05:56;16.57;35.66
9723;DHT22;4900;49.306;8.500;2023-03-07T11:08:33;16.26;35.86
9723;DHT22;4900;49.306;8.500;2023-03-07T11:11:01;16.25;36.79
9723;DHT22;4900;49.306;8.500;2023-03-07T11:13:28;16.15;36.24
9723;DHT22;4900;49.306;8.500;2023-03-07T11:16:18;16.29;36.38
9723;DHT22;4900;49.306;8.500;2023-03-07T11:18:45;16.47;35.69
9723;DHT22;4900;49.306;8.500;2023-03-07T11:21:30;16.85;35.02
9723;DHT22;4900;49.306;8.500;2023-03-07T11:24:05;16.85;34.97
9723;DHT22;4900;49.306;8.500;2023-03-07T11:26:39;16.88;34.75
9723;DHT22;4900;49.306;8.500;2023-03-07T11:29:13;16.58;34.59
9723;DHT22;4900;49.306;8.500;2023-03-07T11:31:54;16.47;34.88
9723;DHT22;4900;49.306;8.500;2023-03-07T11:39:55;15.75;35.93
9723;DHT22;4900;49.306;8.500;2023-03-07T11:42:28;15.43;36.32
9723;DHT22;4900;49.306;8.500;2023-03-07T11:45:20;15.20;36.76
9723;DHT22;4900;49.306;8.500;2023-03-07T11:48:11;14.91;36.90
9723;DHT22;4900;49.306;8.500;2023-03-07T11:50:39;14.36;37.67
9723;DHT22;4900;49.306;8.500;2023-03-07T12:04:20;13.98;38.59
9723;DHT22;4900;49.306;8.500;2023-03-07T12:23:48;13.59;37.89
9723;DHT22;4900;49.306;8.500;2023-03-07T12:26:32;13.24;38.32
9723;DHT22;4900;49.306;8.500;2023-03-07T12:29:05;12.97;38.91
9723;DHT22;4900;49.306;8.500;2023-03-07T12:31:42;12.69;39.40
9723;DHT22;4900;49.306;8.500;2023-03-07T12:36:54;12.53;40.35
9723;DHT22;4900;49.306;8.500;2023-03-07T12:39:29;12.38;40.89
9723;DHT22;4900;49.306;8.500;2023-03-07T12:44:48;12.07;41.42
9723;DHT22;4900;49.306;8.500;2023-03-07T12:47:29;12.09;41.44
9723;DHT22;4900;49.306;8.500;2023-03-07T12:50:14;11.99;41.77
9723;DHT22;4900;49.306;8.500;2023-03-07T12:52:51;12.22;41.78
9723;DHT22;4900;49.306;8.500;2023-03-07T13:00:47;12.14;41.76
9723;DHT22;4900;49.306;8.500;2023-03-07T13:03:35;12.15;41.97
9723;DHT22;4900;49.306;8.500;2023-03-07T13:06:05;12.14;42.12
9723;DHT22;4900;49.306;8.500;2023-03-07T13:08:31;12.07;42.23
9723;DHT22;4900;49.306;8.500;2023-03-07T13:10:58;11.98;42.43
9723;DHT22;4900;49.306;8.500;2023-03-07T13:16:11;11.90;42.85
9723;DHT22;4900;49.306;8.500;2023-03-07T13:18:37;11.95;42.93
9723;DHT22;4900;49.306;8.500;2023-03-07T13:21:29;11.88;43.15
9723;DHT22;4900;49.306;8.500;2023-03-07T13:24:34;11.91;43.15
9723;DHT22;4900;49.306;8.500;2023-03-07T13:27:02;11.77;43.37
9723;DHT22;4900;49.306;8.500;2023-03-07T13:45:55;10.66;44.88
9723;DHT22;4900;49.306;8.500;2023-03-07T13:53:27;10.50;45.29
9723;DHT22;4900;49.306;8.500;2023-03-07T14:01:39;10.44;45.35
9723;DHT22;4900;49.306;8.500;2023-03-07T14:07:02;10.62;45.13
9723;DHT22;4900;49.306;8.500;2023-03-07T14:09:39;10.59;45.13
9723;DHT22;4900;49.306;8.500;2023-03-07T14:15:22;10.50;45.29
9723;DHT22;4900;49.306;8.500;2023-03-07T14:20:55;10.42;45.18
9723;DHT22;4900;49.306;8.500;2023-03-07T14:24:01;10.38;45.38
9723;DHT22;4900;49.306;8.500;2023-03-07T14:26:33;10.24;45.65
9723;DHT22;4900;49.306;8.500;2023-03-07T14:29:20;10.20;45.80
9723;DHT22;4900;49.306;8.500;2023-03-07T14:31:50;10.11;46.07
9723;DHT22;4900;49.306;8.500;2023-03-07T14:34:31;10.20;46.08
9723;DHT22;4900;49.306;8.500;2023-03-07T14:36:59;10.13;46.47
9723;DHT22;4900;49.306;8.500;2023-03-07T14:40:00;10.18;46.60
9723;DHT22;4900;49.306;8.500;2023-03-07T14:42:38;10.31;46.62
9723;DHT22;4900;49.306;8.500;2023-03-07T14:45:35;10.39;46.74
9723;DHT22;4900;49.306;8.500;2023-03-07T14:50:56;10.58;46.51
9723;DHT22;4900;49.306;8.500;2023-03-07T14:53:27;10.58;46.76
9723;DHT22;4900;49.306;8.500;2023-03-07T14:55:54;10.46;46.97
9723;DHT22;4900;49.306;8.500;2023-03-07T14:58:28;10.34;47.53
9723;DHT22;4900;49.306;8.500;2023-03-07T15:01:15;10.11;48.35
9723;DHT22;4900;49.306;8.500;2023-03-07T15:03:49;10.10;48.61
9723;DHT22;4900;49.306;8.500;2023-03-07T15:06:26;10.00;49.08
9723;DHT22;4900;49.306;8.500;2023-03-07T15:08:55;9.91;49.44
9723;DHT22;4900;49.306;8.500;2023-03-07T15:14:00;9.80;50.30
9723;DHT22;4900;49.306;8.500;2023-03-07T15:16:41;9.66;50.99
9723;DHT22;4900;49.306;8.500;2023-03-07T15:19:14;9.66;51.29
9723;DHT22;4900;49.306;8.500;2023-03-07T15:21:52;9.79;51.33
9723;DHT22;4900;49.306;8.500;2023-03-07T15:26:52;9.55;51.98
9723;DHT22;4900;49.306;8.500;2023-03-07T15:29:22;9.56;52.00
9723;DHT22;4900;49.306;8.500;2023-03-07T15:34:27;9.42;52.41
9723;DHT22;4900;49.306;8.500;2023-03-07T15:42:27;9.59;52.32
9723;DHT22;4900;49.306;8.500;2023-03-07T15:44:58;9.70;52.19
9723;DHT22;4900;49.306;8.500;2023-03-07T15:47:26;9.76;52.17
9723;DHT22;4900;49.306;8.500;2023-03-07T15:50:02;9.76;52.16
9723;DHT22;4900;49.306;8.500;2023-03-07T15:52:36;9.85;51.85
9723;DHT22;4900;49.306;8.500;2023-03-07T15:55:17;9.79;51.89
9723;DHT22;4900;49.306;8.500;2023-03-07T15:57:52;9.73;51.98
9723;DHT22;4900;49.306;8.500;2023-03-07T16:00:21;9.69;52.00
9723;DHT22;4900;49.306;8.500;2023-03-07T16:02:51;9.83;51.78
9723;DHT22;4900;49.306;8.500;2023-03-07T16:07:53;9.97;51.39
9723;DHT22;4900;49.306;8.500;2023-03-07T16:10:21;9.70;51.71
9723;DHT22;4900;49.306;8.500;2023-03-07T16:12:48;9.61;52.14
9723;DHT22;4900;49.306;8.500;2023-03-07T16:15:20;9.58;52.22
9723;DHT22;4900;49.306;8.500;2023-03-07T16:17:47;9.59;52.16
9723;DHT22;4900;49.306;8.500;2023-03-07T16:20:19;9.42;52.43
9723;DHT22;4900;49.306;8.500;2023-03-07T16:22:45;9.31;52.69
9723;DHT22;4900;49.306;8.500;2023-03-07T16:25:14;9.24;52.73
9723;DHT22;4900;49.306;8.500;2023-03-07T16:27:43;9.18;52.61
9723;DHT22;4900;49.306;8.500;2023-03-07T16:30:15;9.10;52.71
9723;DHT22;4900;49.306;8.500;2023-03-07T16:32:41;9.01;52.80
9723;DHT22;4900;49.306;8.500;2023-03-07T16:35:26;8.92;53.05
9723;DHT22;4900;49.306;8.500;2023-03-07T16:37:53;8.68;53.20
9723;DHT22;4900;49.306;8.500;2023-03-07T16:40:19;8.71;53.12
9723;DHT22;4900;49.306;8.500;2023-03-07T16:42:46;8.59;53.37
9723;DHT22;4900;49.306;8.500;2023-03-07T16:45:25;8.61;53.20
9723;DHT22;4900;49.306;8.500;2023-03-07T16:47:53;8.55;53.09
9723;DHT22;4900;49.306;8.500;2023-03-07T16:50:21;8.46;53.35
9723;DHT22;4900;49.306;8.500;2023-03-07T16:52:47;8.46;53.43
9723;DHT22;4900;49.306;8.500;2023-03-07T16:55:14;8.48;53.28
9723;DHT22;4900;49.306;8.500;2023-03-07T16:57:43;8.44;53.45
9723;DHT22;4900;49.306;8.500;2023-03-07T17:00:17;8.41;53.48
9723;DHT22;4900;49.306;8.500;2023-03-07T17:02:44;8.35;53.62
9723;DHT22;4900;49.306;8.500;2023-03-07T17:05:21;8.26;53.72
9723;DHT22;4900;49.306;8.500;2023-03-07T17:07:50;8.21;53.89
9723;DHT22;4900;49.306;8.500;2023-03-07T17:10:16;8.17;53.79
9723;DHT22;4900;49.306;8.500;2023-03-07T17:12:42;8.21;53.94
9723;DHT22;4900;49.306;8.500;2023-03-07T17:15:13;8.14;54.01
9723;DHT22;4900;49.306;8.500;2023-03-07T17:17:40;8.09;54.09
9723;DHT22;4900;49.306;8.500;2023-03-07T17:20:07;8.03;54.18
9723;DHT22;4900;49.306;8.500;2023-03-07T17:22:33;7.95;54.29
9723;DHT22;4900;49.306;8.500;2023-03-07T17:24:59;7.93;54.30
9723;DHT22;4900;49.306;8.500;2023-03-07T17:27:26;7.92;54.37
9723;DHT22;4900;49.306;8.500;2023-03-07T17:29:53;7.78;54.59
9723;DHT22;4900;49.306;8.500;2023-03-07T17:32:19;7.77;54.63
9723;DHT22;4900;49.306;8.500;2023-03-07T17:34:45;7.63;54.86
9723;DHT22;4900;49.306;8.500;2023-03-07T17:37:11;7.58;54.93
9723;DHT22;4900;49.306;8.500;2023-03-07T17:39:37;7.55;55.01
9723;DHT22;4900;49.306;8.500;2023-03-07T17:42:03;7.61;54.97
9723;DHT22;4900;49.306;8.500;2023-03-07T17:44:30;7.54;54.91
9723;DHT22;4900;49.306;8.500;2023-03-07T17:46:56;7.48;55.14
9723;DHT22;4900;49.306;8.500;2023-03-07T17:49:22;7.44;55.23
9723;DHT22;4900;49.306;8.500;2023-03-07T17:51:48;7.45;55.25
9723;DHT22;4900;49.306;8.500;2023-03-07T17:54:15;7.33;55.56
9723;DHT22;4900;49.306;8.500;2023-03-07T17:56:40;7.34;55.46
9723;DHT22;4900;49.306;8.500;2023-03-07T17:59:06;7.26;55.57
9723;DHT22;4900;49.306;8.500;2023-03-07T18:01:33;7.31;55.59
9723;DHT22;4900;49.306;8.500;2023-03-07T18:04:01;7.26;55.55
9723;DHT22;4900;49.306;8.500;2023-03-07T18:06:27;7.26;55.66
9723;DHT22;4900;49.306;8.500;2023-03-07T18:08:53;7.19;55.71
9723;DHT22;4900;49.306;8.500;2023-03-07T18:11:19;7.22;55.73
9723;DHT22;4900;49.306;8.500;2023-03-07T18:13:45;7.17;55.79
9723;DHT22;4900;49.306;8.500;2023-03-07T18:16:11;7.13;55.85
9723;DHT22;4900;49.306;8.500;2023-03-07T18:18:38;7.19;55.74
9723;DHT22;4900;49.306;8.500;2023-03-07T18:21:06;7.19;55.72
9723;DHT22;4900;49.306;8.500;2023-03-07T18:23:33;7.23;55.58
9723;DHT22;4900;49.306;8.500;2023-03-07T18:26:10;7.26;55.51
9723;DHT22;4900;49.306;8.500;2023-03-07T18:28:38;7.20;55.50
9723;DHT22;4900;49.306;8.500;2023-03-07T18:31:07;7.30;55.44
9723;DHT22;4900;49.306;8.500;2023-03-07T18:33:33;7.34;55.43
9723;DHT22;4900;49.306;8.500;2023-03-07T18:35:59;7.33;55.43